Time;durP1;ratioP1;P1;durP2;ratioP2;P2;SDS_P1;SDS_P2;PMS_P1;PMS_P2;Temp;Humidity;BMP_temperature;BMP_pressure;BME280_temperature;BME280_humidity;BME280_pressure;Samples;Min_cycle;Max_cycle;Signal;HPM_P1;HPM_P2
2023/07/31 00:00:48;;;;;;;8.95;2.90;;;;;;;9.41;100.00;93218.03;2089996;28;20025;-84
2023/07/31 00:01:49;;;;;;;5.55;2.78;;;;;;;9.35;100.00;93223.09;2097508;28;20021;-82
2023/07/31 00:02:52;;;;;;;5.13;2.20;;;;;;;9.49;100.00;93216.78;2103051;28;20036;-83
2023/07/31 00:03:53;;;;;;;5.88;2.42;;;;;;;9.52;100.00;93227.38;2107085;28;20035;-83
2023/07/31 00:04:54;;;;;;;7.30;2.55;;;;;;;9.53;100.00;93223.56;2097493;28;20499;-82
2023/07/31 00:05:55;;;;;;;3.38;2.33;;;;;;;9.50;100.00;93227.03;2098555;28;20095;-84
2023/07/31 00:06:56;;;;;;;9.65;2.78;;;;;;;9.44;100.00;93234.00;2106168;28;20035;-84
2023/07/31 00:07:57;;;;;;;5.10;2.67;;;;;;;9.44;100.00;93234.00;2106826;28;20036;-84
2023/07/31 00:08:59;;;;;;;6.07;2.53;;;;;;;9.41;100.00;93234.06;2082965;28;20116;-82
2023/07/31 00:10:00;;;;;;;4.45;2.08;;;;;;;9.43;100.00;93232.47;2100084;28;20445;-83
2023/07/31 00:11:01;;;;;;;6.53;2.70;;;;;;;9.47;100.00;93238.50;2098213;28;20020;-82
2023/07/31 00:12:03;;;;;;;5.45;2.53;;;;;;;9.48;100.00;93223.25;2098248;28;20023;-83
2023/07/31 00:13:03;;;;;;;3.67;2.20;;;;;;;9.30;100.00;93232.28;2090185;28;20044;-83
2023/07/31 00:14:04;;;;;;;5.90;2.65;;;;;;;9.27;100.00;93232.34;2089878;28;20345;-84
2023/07/31 00:15:07;;;;;;;7.18;2.13;;;;;;;9.19;100.00;93228.28;2106382;28;20151;-84
2023/07/31 00:16:08;;;;;;;5.65;2.33;;;;;;;9.21;100.00;93223.28;2106967;28;20089;-83
2023/07/31 00:17:09;;;;;;;6.53;2.30;;;;;;;9.17;100.00;93222.59;2098219;28;20020;-84
2023/07/31 00:18:11;;;;;;;13.00;3.10;;;;;;;9.22;100.00;93230.91;2097236;28;20499;-82
2023/07/31 00:19:12;;;;;;;9.20;2.42;;;;;;;9.68;100.00;93234.75;2089641;28;20103;-83
2023/07/31 00:20:13;;;;;;;5.07;2.63;;;;;;;9.70;100.00;93223.66;2089885;28;20147;-83
2023/07/31 00:21:14;;;;;;;4.60;2.78;;;;;;;9.51;100.00;93217.88;2098602;28;20082;-83
2023/07/31 00:22:14;;;;;;;6.70;2.22;;;;;;;9.37;100.00;93218.09;2105538;28;20089;-84
2023/07/31 00:23:15;;;;;;;8.38;2.65;;;;;;;9.33;100.00;93215.47;2106475;28;20452;-83
2023/07/31 00:24:16;;;;;;;11.55;3.05;;;;;;;9.21;100.00;93216.03;2106643;28;20472;-84
2023/07/31 00:25:17;;;;;;;10.75;2.80;;;;;;;9.08;100.00;93223.84;2098127;28;20035;-82
2023/07/31 00:26:19;;;;;;;4.85;2.75;;;;;;;9.07;100.00;93211.66;2089914;28;20449;-83
2023/07/31 00:27:20;;;;;;;7.35;2.78;;;;;;;9.25;100.00;93216.75;2098526;28;20024;-82
2023/07/31 00:28:21;;;;;;;7.85;2.58;;;;;;;9.21;100.00;93212.63;2106482;28;20028;-83
2023/07/31 00:29:22;;;;;;;6.05;2.58;;;;;;;9.24;100.00;93217.91;2106642;28;20384;-82
2023/07/31 00:30:25;;;;;;;5.47;2.90;;;;;;;9.26;100.00;93214.81;2096506;28;20020;-82
2023/07/31 00:31:26;;;;;;;6.40;2.83;;;;;;;9.12;100.00;93210.47;2097837;28;20024;-83
2023/07/31 00:32:27;;;;;;;7.07;2.53;;;;;;;9.20;100.00;93208.44;2082271;28;20025;-83
2023/07/31 00:33:29;;;;;;;4.50;2.33;;;;;;;9.11;100.00;93213.53;2095364;28;20016;-84
2023/07/31 00:34:30;;;;;;;4.35;2.20;;;;;;;9.13;100.00;93209.31;2100205;28;20047;-83
2023/07/31 00:35:31;;;;;;;9.98;2.75;;;;;;;9.06;100.00;93209.41;2097865;28;20462;-83
2023/07/31 00:36:32;;;;;;;9.20;2.60;;;;;;;9.10;100.00;93207.47;2081760;28;20025;-82
2023/07/31 00:37:33;;;;;;;9.07;2.92;;;;;;;9.10;100.00;93214.72;2082018;28;20017;-82
2023/07/31 00:38:34;;;;;;;5.35;2.65;;;;;;;8.99;100.00;93222.84;2095600;28;20035;-82
2023/07/31 00:39:35;;;;;;;5.60;2.38;;;;;;;8.95;100.00;93209.56;2089537;28;20040;-82
2023/07/31 00:40:37;;;;;;;8.23;2.90;;;;;;;8.98;100.00;93214.09;2090972;28;20029;-82
2023/07/31 00:41:38;;;;;;;3.53;2.35;;;;;;;8.95;100.00;93208.81;2097499;28;20349;-82
2023/07/31 00:42:39;;;;;;;6.40;2.47;;;;;;;8.92;100.00;93210.38;2100053;28;20103;-83
2023/07/31 00:43:40;;;;;;;4.72;2.97;;;;;;;8.83;100.00;93207.47;2097268;28;20028;-83
2023/07/31 00:44:41;;;;;;;6.28;2.65;;;;;;;8.81;100.00;93215.84;2089624;28;20021;-82
2023/07/31 00:45:42;;;;;;;3.85;2.72;;;;;;;8.89;100.00;93213.84;2098714;28;20055;-84
2023/07/31 00:46:43;;;;;;;6.18;2.40;;;;;;;8.88;100.00;93206.25;2097945;28;20020;-81
2023/07/31 00:47:44;;;;;;;6.40;2.55;;;;;;;8.94;100.00;93208.06;2082318;28;20022;-82
2023/07/31 00:48:45;;;;;;;5.13;2.53;;;;;;;8.93;100.00;93205.81;2084683;28;20071;-83
2023/07/31 00:49:47;;;;;;;5.72;3.38;;;;;;;8.93;100.00;93206.56;2097677;28;20047;-83
2023/07/31 00:50:48;;;;;;;7.50;2.53;;;;;;;8.97;100.00;93203.84;2098298;28;20031;-83
2023/07/31 00:51:49;;;;;;;8.80;2.50;;;;;;;8.92;100.00;93201.63;2103311;28;20027;-83
2023/07/31 00:52:51;;;;;;;5.25;2.75;;;;;;;8.87;100.00;93204.72;2106483;28;20073;-83
2023/07/31 00:53:54;;;;;;;5.53;2.85;;;;;;;8.77;100.00;93201.06;2100056;28;20111;-83
2023/07/31 00:54:55;;;;;;;6.40;2.60;;;;;;;8.75;100.00;93206.81;2099060;28;20024;-83
2023/07/31 00:55:56;;;;;;;6.00;2.50;;;;;;;8.76;100.00;93197.63;2106679;28;20081;-83
2023/07/31 00:56:57;;;;;;;4.57;2.90;;;;;;;8.75;100.00;93195.38;2093596;28;20099;-83
2023/07/31 00:57:58;;;;;;;5.57;2.50;;;;;;;8.77;100.00;93199.16;2106464;28;20027;-83
2023/07/31 00:58:59;;;;;;;4.60;2.38;;;;;;;8.76;100.00;93196.88;2097318;28;20028;-83
2023/07/31 01:00:03;;;;;;;6.82;2.75;;;;;;;8.74;100.00;93193.88;2097826;28;20377;-83
2023/07/31 01:01:04;;;;;;;3.45;2.30;;;;;;;8.80;100.00;93193.03;2098624;28;20400;-84
2023/07/31 01:02:05;;;;;;;4.68;2.40;;;;;;;8.82;100.00;93198.72;2088558;28;20024;-85
2023/07/31 01:03:06;;;;;;;6.20;2.65;;;;;;;8.88;100.00;93199.00;2089986;28;20028;-83
2023/07/31 01:04:07;;;;;;;6.20;2.50;;;;;;;8.81;100.00;93196.44;2097739;28;20078;-83
2023/07/31 01:05:09;;;;;;;6.00;2.60;;;;;;;8.78;100.00;93194.56;2101433;28;20028;-83
2023/07/31 01:06:20;;;;;;;6.63;2.40;;;;;;;8.69;100.00;93200.41;2104207;28;20024;-84
2023/07/31 01:07:35;;;;;;;4.85;2.65;;;;;;;8.67;100.00;93201.97;2104714;28;20024;-81
2023/07/31 01:08:48;;;;;;;3.70;2.60;;;;;;;8.70;100.00;93195.84;2093031;28;20029;-82
2023/07/31 01:10:02;;;;;;;3.58;2.20;;;;;;;8.76;100.00;93192.31;2101179;28;20162;-81
2023/07/31 01:11:17;;;;;;;5.18;2.40;;;;;;;8.64;100.00;93198.19;2106888;28;20016;-84
2023/07/31 01:12:20;;;;;;;4.63;2.67;;;;;;;8.65;100.00;93190.94;2106692;28;20020;-83
2023/07/31 01:13:21;;;;;;;3.40;2.13;;;;;;;8.69;100.00;93191.66;2107899;28;20016;-83
2023/07/31 01:14:22;;;;;;;7.18;2.42;;;;;;;8.67;100.00;93185.97;2097900;28;20512;-83
2023/07/31 01:15:25;;;;;;;9.70;3.05;;;;;;;8.71;100.00;93181.34;2092796;28;20048;-83
2023/07/31 01:16:31;;;;;;;6.15;3.08;;;;;;;8.57;100.00;93184.97;2090228;28;20146;-81
2023/07/31 01:17:32;;;;;;;5.53;2.47;;;;;;;8.61;100.00;93185.69;2088366;28;20437;-83
2023/07/31 01:18:33;;;;;;;5.15;2.63;;;;;;;8.56;100.00;93186.88;2089408;28;20090;-82
2023/07/31 01:19:36;;;;;;;4.10;2.58;;;;;;;8.51;100.00;93181.97;2089704;28;20568;-82
2023/07/31 01:20:41;;;;;;;5.47;3.10;;;;;;;8.56;100.00;93188.78;2092746;28;20029;-82
2023/07/31 01:22:03;;;;;;;8.45;2.72;;;;;;;8.47;100.00;93186.63;2096334;28;20052;-82
2023/07/31 01:23:22;;;;;;;5.03;2.60;;;;;;;8.48;100.00;93182.03;2106931;28;20034;-82
2023/07/31 01:24:35;;;;;;;3.38;2.50;;;;;;;8.55;100.00;93177.34;2110872;28;20491;-82
2023/07/31 01:26:18;;;;;;;6.13;2.47;;;;;;;8.51;100.00;93176.66;2092472;28;20144;-83
2023/07/31 01:27:24;;;;;;;5.70;2.60;;;;;;;8.45;100.00;93175.59;2109593;28;20110;-83
2023/07/31 01:28:46;;;;;;;3.53;2.47;;;;;;;8.53;100.00;93176.25;2106586;28;20058;-81
2023/07/31 01:29:59;;;;;;;4.80;2.63;;;;;;;8.55;100.00;93184.59;2104750;28;20022;-84
2023/07/31 01:31:02;;;;;;;8.45;3.00;;;;;;;8.49;100.00;93181.63;2085384;28;20028;-83
2023/07/31 01:32:06;;;;;;;4.82;2.67;;;;;;;8.56;100.00;93178.88;2105824;28;20024;-82
2023/07/31 01:33:08;;;;;;;4.55;2.50;;;;;;;8.56;100.00;93181.56;2097931;28;20416;-82
2023/07/31 01:34:10;;;;;;;6.38;2.50;;;;;;;8.56;100.00;93170.13;2081723;28;20063;-84
2023/07/31 01:35:11;;;;;;;4.80;2.63;;;;;;;8.54;100.00;93170.53;2088197;28;20017;-84
2023/07/31 01:36:13;;;;;;;4.25;2.80;;;;;;;8.53;100.00;93168.28;2089308;28;20025;-82
2023/07/31 01:37:14;;;;;;;7.85;2.75;;;;;;;8.48;100.00;93166.81;2094110;28;20386;-84
2023/07/31 01:38:15;;;;;;;6.10;2.78;;;;;;;8.42;100.00;93170.31;2104996;28;20036;-83
2023/07/31 01:39:16;;;;;;;8.93;2.70;;;;;;;8.50;100.00;93164.50;2106130;28;20082;-83
2023/07/31 01:40:17;;;;;;;9.68;3.00;;;;;;;8.48;100.00;93166.81;2101175;28;20074;-84
2023/07/31 01:41:18;;;;;;;3.47;2.63;;;;;;;8.48;100.00;93156.16;2097518;28;20059;-82
2023/07/31 01:42:35;;;;;;;4.32;2.65;;;;;;;8.50;100.00;93166.41;2098675;28;20380;-82
2023/07/31 01:43:36;;;;;;;4.72;2.70;;;;;;;8.45;100.00;93169.50;2101847;28;20037;-84
2023/07/31 01:44:37;;;;;;;11.20;2.88;;;;;;;8.46;100.00;93165.69;2089509;28;20472;-83
2023/07/31 01:45:38;;;;;;;6.13;2.85;;;;;;;8.36;100.00;93177.22;2097793;28;20048;-83
2023/07/31 01:46:39;;;;;;;4.40;2.75;;;;;;;8.40;100.00;93160.06;2112500;28;20031;-83
2023/07/31 01:47:40;;;;;;;8.05;2.75;;;;;;;8.43;100.00;93164.59;2106308;28;20028;-82
2023/07/31 01:48:41;;;;;;;9.73;2.80;;;;;;;8.30;100.00;93159.03;2092457;28;20090;-83
2023/07/31 01:49:42;;;;;;;5.60;2.30;;;;;;;8.43;100.00;93161.94;2097489;28;20031;-84
2023/07/31 01:50:43;;;;;;;6.53;2.63;;;;;;;8.48;100.00;93160.72;2112253;28;20027;-83
2023/07/31 01:51:44;;;;;;;6.80;2.80;;;;;;;8.44;100.00;93155.44;2096851;28;20077;-83
2023/07/31 01:52:45;;;;;;;5.30;2.80;;;;;;;8.47;100.00;93152.00;2089445;28;20028;-83
2023/07/31 01:53:46;;;;;;;4.45;2.63;;;;;;;8.50;100.00;93145.09;2092273;28;20738;-82
2023/07/31 01:54:52;;;;;;;6.07;2.90;;;;;;;8.53;100.00;93145.03;2106143;28;20480;-81
2023/07/31 01:55:53;;;;;;;4.63;2.70;;;;;;;8.55;100.00;93155.28;2106314;28;20024;-84
2023/07/31 01:56:54;;;;;;;4.40;2.65;;;;;;;8.53;100.00;93153.03;2097332;28;20111;-84
2023/07/31 01:57:55;;;;;;;5.65;2.90;;;;;;;8.52;100.00;93154.19;2114728;28;20030;-82
2023/07/31 01:58:56;;;;;;;12.75;2.80;;;;;;;8.53;100.00;93152.28;2099290;28;20048;-84
2023/07/31 02:00:21;;;;;;;5.75;2.72;;;;;;;8.54;100.00;93159.13;2089312;28;20546;-82
2023/07/31 02:01:24;;;;;;;7.70;3.10;;;;;;;8.54;100.00;93154.53;2104083;28;20434;-82
2023/07/31 02:02:25;;;;;;;7.22;2.80;;;;;;;8.40;100.00;93154.75;2105254;28;20039;-82
2023/07/31 02:03:27;;;;;;;5.75;2.92;;;;;;;8.40;100.00;93152.06;2103466;28;20052;-83
2023/07/31 02:04:28;;;;;;;7.35;2.88;;;;;;;8.32;100.00;93159.34;2089924;28;20108;-83
2023/07/31 02:05:29;;;;;;;7.63;2.95;;;;;;;8.17;100.00;93160.69;2094478;28;20020;-82
2023/07/31 02:06:37;;;;;;;6.20;2.88;;;;;;;8.26;100.00;93149.56;2098616;28;20162;-82
2023/07/31 02:07:38;;;;;;;3.85;2.67;;;;;;;8.36;100.00;93146.00;2091101;28;20451;-83
2023/07/31 02:08:39;;;;;;;10.57;2.63;;;;;;;8.36;100.00;93151.34;2092610;28;20020;-83
2023/07/31 02:09:40;;;;;;;3.47;2.65;;;;;;;8.31;100.00;93141.13;2105927;28;20492;-83
2023/07/31 02:10:41;;;;;;;8.32;2.92;;;;;;;8.30;100.00;93140.38;2105335;28;20102;-84
2023/07/31 02:11:42;;;;;;;4.40;2.70;;;;;;;8.33;100.00;93141.47;2093754;28;20020;-83
2023/07/31 02:12:43;;;;;;;5.00;2.78;;;;;;;8.35;100.00;93138.44;2089270;28;20021;-82
2023/07/31 02:13:44;;;;;;;5.68;2.28;;;;;;;8.28;100.00;93140.00;2096801;28;20035;-83
2023/07/31 02:14:45;;;;;;;8.82;2.88;;;;;;;8.28;100.00;93139.25;2097950;28;20043;-82
2023/07/31 02:15:48;;;;;;;3.65;2.50;;;;;;;8.35;100.00;93131.19;2097508;28;20111;-83
2023/07/31 02:16:49;;;;;;;7.53;2.30;;;;;;;8.40;100.00;93132.69;2095174;28;20445;-83
2023/07/31 02:17:50;;;;;;;4.18;2.92;;;;;;;8.40;100.00;93130.75;2089150;28;20033;-83
2023/07/31 02:18:51;;;;;;;7.20;2.72;;;;;;;8.50;100.00;93127.19;2094460;28;20099;-83
2023/07/31 02:19:51;;;;;;;6.22;2.72;;;;;;;8.50;100.00;93129.09;2097219;28;20032;-83
2023/07/31 02:22:16;;;;;;;;;;;;;;;8.37;100.00;93130.81;2141825;27;20122;-84
2023/07/31 02:23:20;;;;;;;7.72;2.20;;;;;;;8.31;100.00;93119.81;2120729;28;19919;-83
2023/07/31 02:24:21;;;;;;;6.03;2.60;;;;;;;8.39;100.00;93123.19;2096871;28;20112;-84
2023/07/31 02:25:22;;;;;;;5.30;2.30;;;;;;;8.21;100.00;93121.47;2088026;28;20021;-84
2023/07/31 02:26:23;;;;;;;4.97;2.47;;;;;;;8.32;100.00;93119.41;2096526;28;20039;-83
2023/07/31 02:27:27;;;;;;;4.18;2.80;;;;;;;8.37;100.00;93125.47;2104702;28;20480;-83
2023/07/31 02:28:29;;;;;;;4.47;2.97;;;;;;;8.38;100.00;93125.06;2105051;28;20020;-82
2023/07/31 02:29:30;;;;;;;4.15;2.33;;;;;;;8.27;100.00;93122.53;2096772;28;20162;-84
2023/07/31 02:30:31;;;;;;;7.78;2.67;;;;;;;8.22;100.00;93124.88;2102408;28;20638;-82
2023/07/31 02:31:32;;;;;;;4.30;3.05;;;;;;;8.20;100.00;93121.84;2106968;28;20020;-83
2023/07/31 02:32:33;;;;;;;6.10;2.50;;;;;;;8.22;100.00;93122.97;2096433;28;20016;-83
2023/07/31 02:33:34;;;;;;;4.45;2.65;;;;;;;8.24;100.00;93119.91;2109268;28;20131;-83
2023/07/31 02:34:35;;;;;;;8.00;3.03;;;;;;;8.12;100.00;93123.88;2113230;28;20040;-83
2023/07/31 02:35:36;;;;;;;5.05;2.72;;;;;;;8.18;100.00;93124.19;2115434;28;20031;-82
2023/07/31 02:36:36;;;;;;;5.40;2.50;;;;;;;8.29;100.00;93122.13;2118643;28;20031;-84
2023/07/31 02:37:46;;;;;;;7.60;2.75;;;;;;;8.24;100.00;93115.34;2113075;28;20082;-84
2023/07/31 02:38:47;;;;;;;4.38;2.50;;;;;;;8.24;100.00;93117.25;2104306;28;20028;-83
2023/07/31 02:39:48;;;;;;;6.55;2.65;;;;;;;8.04;100.00;93115.22;2097148;28;20031;-83
2023/07/31 02:40:49;;;;;;;6.90;2.88;;;;;;;8.08;100.00;93110.59;2120962;27;20403;-83
2023/07/31 02:41:50;;;;;;;9.75;3.20;;;;;;;8.10;100.00;93114.78;2118505;27;20019;-83
2023/07/31 02:42:51;;;;;;;6.53;2.70;;;;;;;8.12;100.00;93117.78;2113138;28;20349;-84
2023/07/31 02:43:52;;;;;;;2.75;2.53;;;;;;;8.13;100.00;93121.97;2122655;27;20110;-84
2023/07/31 02:44:55;;;;;;;5.88;2.80;;;;;;;8.05;100.00;93123.94;2104505;28;20123;-84
2023/07/31 02:45:56;;;;;;;6.45;2.30;;;;;;;7.97;100.00;93117.19;2096812;28;20028;-83
2023/07/31 02:46:57;;;;;;;4.78;2.58;;;;;;;8.02;100.00;93116.75;2095880;28;20024;-83
2023/07/31 02:47:58;;;;;;;5.20;2.33;;;;;;;8.08;100.00;93115.19;2104560;28;20073;-83
2023/07/31 02:48:59;;;;;;;3.78;2.53;;;;;;;8.10;100.00;93115.53;2109885;28;20024;-83
2023/07/31 02:50:02;;;;;;;6.13;3.40;;;;;;;8.03;100.00;93121.69;2112994;28;20043;-83
2023/07/31 02:51:02;;;;;;;7.68;3.03;;;;;;;8.00;100.00;93117.16;2120639;27;20019;-84
2023/07/31 02:52:04;;;;;;;5.65;2.95;;;;;;;8.05;100.00;93119.38;2117098;28;20094;-84
2023/07/31 02:53:05;;;;;;;7.55;3.10;;;;;;;8.01;100.00;93113.34;2108927;28;20028;-82
2023/07/31 02:54:06;;;;;;;8.77;2.90;;;;;;;7.99;100.00;93109.56;2106458;28;20823;-83
2023/07/31 02:55:07;;;;;;;8.02;2.90;;;;;;;7.99;100.00;93114.88;2112863;28;20062;-82
2023/07/31 02:56:08;;;;;;;8.35;2.90;;;;;;;8.02;100.00;93108.78;2096301;28;20028;-83
2023/07/31 02:57:09;;;;;;;5.55;2.80;;;;;;;8.04;100.00;93112.56;2087989;28;20021;-83
2023/07/31 02:58:10;;;;;;;7.38;2.88;;;;;;;8.15;100.00;93106.34;2104662;28;20028;-83
2023/07/31 02:59:11;;;;;;;6.95;2.88;;;;;;;8.13;100.00;93113.97;2120999;28;20093;-82
2023/07/31 03:00:12;;;;;;;5.65;2.92;;;;;;;8.05;100.00;93111.41;2117600;28;20494;-85
2023/07/31 03:01:13;;;;;;;5.70;2.78;;;;;;;8.15;100.00;93114.31;2113000;28;20043;-83
2023/07/31 03:02:14;;;;;;;7.03;3.03;;;;;;;8.11;100.00;93108.28;2098697;28;20479;-84
2023/07/31 03:03:15;;;;;;;7.93;2.70;;;;;;;8.03;100.00;93104.94;2088189;28;20481;-83
2023/07/31 03:04:16;;;;;;;5.00;2.55;;;;;;;7.93;100.00;93103.19;2104464;28;20031;-83
2023/07/31 03:05:17;;;;;;;8.18;2.90;;;;;;;7.82;100.00;93104.06;2104348;28;20056;-82
2023/07/31 03:06:18;;;;;;;4.55;2.90;;;;;;;7.85;100.00;93105.16;2096131;28;20021;-84
2023/07/31 03:07:19;;;;;;;4.85;2.80;;;;;;;7.92;100.00;93102.44;2104114;28;20024;-84
2023/07/31 03:08:20;;;;;;;4.85;2.60;;;;;;;7.96;100.00;93102.38;2112686;28;20024;-82
2023/07/31 03:09:21;;;;;;;4.05;2.35;;;;;;;7.82;100.00;93109.38;2125750;27;20195;-83
2023/07/31 03:10:23;;;;;;;6.25;2.45;;;;;;;7.83;100.00;93110.91;2103089;28;20410;-82
2023/07/31 03:11:24;;;;;;;4.05;2.72;;;;;;;7.82;100.00;93105.97;2104685;28;20739;-83
2023/07/31 03:12:25;;;;;;;6.75;2.75;;;;;;;7.75;100.00;93112.13;2095965;28;20028;-82
2023/07/31 03:13:26;;;;;;;4.00;2.30;;;;;;;7.73;100.00;93116.34;2096141;28;20063;-84
2023/07/31 03:14:27;;;;;;;4.97;2.30;;;;;;;7.80;100.00;93113.59;2104508;28;20377;-82
2023/07/31 03:15:28;;;;;;;6.32;2.40;;;;;;;7.83;100.00;93112.81;2100786;28;20025;-82
2023/07/31 03:16:28;;;;;;;3.28;2.20;;;;;;;7.79;100.00;93112.09;2104514;28;20017;-83
2023/07/31 03:17:29;;;;;;;2.97;2.28;;;;;;;7.87;100.00;93116.19;2112496;28;20032;-84
2023/07/31 03:18:30;;;;;;;3.70;2.40;;;;;;;7.80;100.00;93113.59;2113147;28;20030;-84
2023/07/31 03:19:33;;;;;;;6.97;2.05;;;;;;;7.80;100.00;93110.94;2107503;28;20415;-83
2023/07/31 03:20:34;;;;;;;3.92;2.33;;;;;;;7.83;100.00;93112.81;2117654;27;20125;-84
2023/07/31 03:21:35;;;;;;;5.35;2.65;;;;;;;7.94;100.00;93115.31;2109909;28;20063;-83
2023/07/31 03:22:36;;;;;;;4.85;2.33;;;;;;;7.89;100.00;93116.53;2087885;28;20037;-83
2023/07/31 03:23:38;;;;;;;3.40;2.42;;;;;;;7.90;100.00;93122.59;2112712;28;20173;-82
2023/07/31 03:24:39;;;;;;;8.60;3.50;;;;;;;7.93;100.00;93122.56;2112601;28;20464;-82
2023/07/31 03:25:55;;;;;;;4.25;2.22;;;;;;;7.98;100.00;93114.13;2103995;28;20020;-83
2023/07/31 03:26:56;;;;;;;8.70;2.75;;;;;;;8.06;100.00;93120.13;2098156;28;20669;-83
2023/07/31 03:27:57;;;;;;;4.25;2.70;;;;;;;8.08;100.00;93113.25;2089889;28;20071;-82
2023/07/31 03:28:58;;;;;;;5.97;2.83;;;;;;;8.15;100.00;93111.66;2106295;28;20081;-84
2023/07/31 03:30:00;;;;;;;5.90;3.00;;;;;;;8.15;100.00;93117.72;2112190;28;20051;-84
2023/07/31 03:31:02;;;;;;;3.85;2.90;;;;;;;8.14;100.00;93116.22;2104175;28;20024;-83
2023/07/31 03:32:03;;;;;;;6.53;3.05;;;;;;;8.05;100.00;93110.66;2107997;28;20095;-83
2023/07/31 03:33:04;;;;;;;6.60;3.63;;;;;;;8.08;100.00;93123.91;2110804;28;20126;-83
2023/07/31 03:34:05;;;;;;;6.75;3.30;;;;;;;8.11;100.00;93124.25;2113696;28;20019;-83
2023/07/31 03:35:06;;;;;;;6.95;3.35;;;;;;;8.20;100.00;93125.28;2107382;28;20092;-83
2023/07/31 03:36:07;;;;;;;9.82;3.38;;;;;;;8.26;100.00;93123.69;2106925;28;20024;-82
2023/07/31 03:37:09;;;;;;;6.93;3.10;;;;;;;8.30;100.00;93124.41;2103292;28;20106;-83
2023/07/31 03:38:10;;;;;;;5.10;2.80;;;;;;;8.31;100.00;93125.16;2107242;28;20063;-83
2023/07/31 03:39:11;;;;;;;4.80;3.10;;;;;;;8.22;100.00;93120.31;2090706;28;20656;-83
2023/07/31 03:40:12;;;;;;;3.97;2.97;;;;;;;8.35;100.00;93114.47;2091776;28;20555;-83
2023/07/31 03:41:13;;;;;;;4.28;2.97;;;;;;;8.27;100.00;93117.19;2121908;27;20026;-83
2023/07/31 03:42:14;;;;;;;10.55;3.53;;;;;;;8.39;100.00;93118.59;2101514;28;20120;-83
2023/07/31 03:43:17;;;;;;;7.13;3.20;;;;;;;8.44;100.00;93123.47;2090389;28;20059;-83
2023/07/31 03:44:18;;;;;;;4.60;3.25;;;;;;;8.37;100.00;93126.22;2090596;28;20028;-83
2023/07/31 03:45:19;;;;;;;4.97;2.72;;;;;;;8.39;100.00;93120.53;2093516;28;20025;-84
2023/07/31 03:46:20;;;;;;;6.82;3.20;;;;;;;8.44;100.00;93120.81;2106906;28;20016;-83
2023/07/31 03:47:21;;;;;;;6.70;3.30;;;;;;;8.59;100.00;93129.34;2108650;28;20023;-83
2023/07/31 03:48:22;;;;;;;6.22;2.75;;;;;;;8.83;100.00;93127.50;2098449;28;20025;-84
2023/07/31 03:49:23;;;;;;;4.30;3.10;;;;;;;8.86;100.00;93121.34;2115454;27;20035;-83
2023/07/31 03:50:25;;;;;;;5.55;3.65;;;;;;;8.63;100.00;93122.06;2102771;28;20423;-83
2023/07/31 03:51:27;;;;;;;7.28;3.00;;;;;;;8.48;100.00;93113.53;2096264;28;20021;-83
2023/07/31 03:52:28;;;;;;;5.88;3.28;;;;;;;8.45;100.00;93114.34;2093232;28;20025;-83
2023/07/31 03:53:29;;;;;;;7.40;3.22;;;;;;;8.49;100.00;93116.94;2106675;28;20050;-83
2023/07/31 03:54:30;;;;;;;5.25;3.35;;;;;;;8.46;100.00;93121.16;2098620;28;20016;-83
2023/07/31 03:55:31;;;;;;;5.30;3.28;;;;;;;8.46;100.00;93115.09;2092722;28;20024;-83
2023/07/31 03:56:34;;;;;;;7.15;3.00;;;;;;;8.48;100.00;93113.53;2098339;28;20020;-83
2023/07/31 03:57:35;;;;;;;4.85;3.00;;;;;;;8.69;100.00;93109.81;2098653;28;20036;-83
2023/07/31 03:58:36;;;;;;;9.20;3.63;;;;;;;8.56;100.00;93114.19;2108538;28;20516;-83
2023/07/31 03:59:40;;;;;;;6.35;3.40;;;;;;;8.53;100.00;93105.09;2106926;28;20119;-83
2023/07/31 04:00:41;;;;;;;6.45;3.53;;;;;;;8.64;100.00;93109.50;2104250;28;20377;-83
2023/07/31 04:01:42;;;;;;;5.10;3.20;;;;;;;8.55;100.00;93105.44;2105792;28;20043;-83
2023/07/31 04:02:43;;;;;;;8.15;3.20;;;;;;;8.49;100.00;93104.38;2098489;28;20025;-83
2023/07/31 04:03:44;;;;;;;8.15;3.47;;;;;;;8.54;100.00;93103.94;2114740;27;20059;-82
2023/07/31 04:04:45;;;;;;;7.65;3.08;;;;;;;8.51;100.00;93104.72;2098588;28;20025;-84
2023/07/31 04:05:46;;;;;;;12.93;3.95;;;;;;;8.62;100.00;93109.16;2098340;28;20043;-82
2023/07/31 04:06:47;;;;;;;6.82;2.90;;;;;;;8.89;100.00;93109.13;2107621;28;20020;-83
2023/07/31 04:07:48;;;;;;;5.45;3.10;;;;;;;9.03;100.00;93108.91;2099255;28;20140;-85
2023/07/31 04:08:49;;;;;;;6.90;3.40;;;;;;;8.88;100.00;93105.72;2098118;28;20104;-83
2023/07/31 04:09:50;;;;;;;4.10;3.30;;;;;;;8.67;100.00;93104.13;2107800;28;20020;-84
2023/07/31 04:10:51;;;;;;;6.05;3.25;;;;;;;8.64;100.00;93098.84;2100253;28;20031;-82
2023/07/31 04:11:52;;;;;;;6.38;3.13;;;;;;;8.65;100.00;93103.00;2095334;28;20047;-84
2023/07/31 04:12:52;;;;;;;7.72;3.22;;;;;;;8.55;100.00;93104.69;2103006;28;20024;-83
2023/07/31 04:13:54;;;;;;;6.90;3.42;;;;;;;8.55;100.00;93092.09;2107005;28;20028;-83
2023/07/31 04:14:55;;;;;;;8.30;3.05;;;;;;;8.45;100.00;93100.25;2098525;28;20061;-84
2023/07/31 04:15:56;;;;;;;8.55;3.22;;;;;;;8.48;100.00;93097.56;2106687;28;20028;-83
2023/07/31 04:16:56;;;;;;;4.22;3.20;;;;;;;8.57;100.00;93097.06;2099819;28;20453;-85
2023/07/31 04:17:58;;;;;;;5.28;3.38;;;;;;;8.71;100.00;93101.41;2115242;28;20499;-83
2023/07/31 04:18:59;;;;;;;5.05;3.20;;;;;;;8.86;100.00;93100.03;2103794;28;20059;-84
2023/07/31 04:20:00;;;;;;;5.00;3.45;;;;;;;8.86;100.00;93096.59;2098479;28;20016;-84
2023/07/31 04:21:02;;;;;;;4.80;3.13;;;;;;;8.93;100.00;93099.19;2118996;27;20080;-83
2023/07/31 04:22:03;;;;;;;10.05;3.10;;;;;;;8.87;100.00;93103.44;2106443;28;20044;-83
2023/07/31 04:23:04;;;;;;;4.28;2.95;;;;;;;8.73;100.00;93089.19;2112943;28;20336;-84
2023/07/31 04:24:05;;;;;;;8.80;3.30;;;;;;;8.82;100.00;93102.00;2106571;28;20021;-83
2023/07/31 04:25:06;;;;;;;8.02;3.42;;;;;;;8.70;100.00;93090.00;2114067;28;20024;-83
2023/07/31 04:26:07;;;;;;;8.32;3.25;;;;;;;8.71;100.00;93094.16;2106612;28;20016;-84
2023/07/31 04:27:10;;;;;;;6.95;3.65;;;;;;;8.74;100.00;93096.03;2106087;28;20016;-83
2023/07/31 04:28:11;;;;;;;9.85;3.50;;;;;;;8.89;100.00;93085.91;2106647;28;20032;-83
2023/07/31 04:29:12;;;;;;;6.78;3.40;;;;;;;8.83;100.00;93095.53;2089763;28;20032;-84
2023/07/31 04:30:13;;;;;;;8.82;3.42;;;;;;;8.98;100.00;93099.47;2097937;28;20035;-83
2023/07/31 04:31:14;;;;;;;4.82;3.17;;;;;;;9.05;100.00;93091.34;2096834;28;20058;-83
2023/07/31 04:32:19;;;;;;;7.13;3.72;;;;;;;9.14;100.00;93090.09;2104116;28;20078;-82
2023/07/31 04:33:20;;;;;;;11.55;3.75;;;;;;;9.04;100.00;93089.84;2098767;28;20077;-83
2023/07/31 04:34:20;;;;;;;8.77;3.47;;;;;;;9.26;100.00;93106.25;2106651;27;20612;-85
2023/07/31 04:35:21;;;;;;;10.30;3.53;;;;;;;9.29;100.00;93096.66;2112030;28;20363;-83
2023/07/31 04:36:22;;;;;;;6.65;3.35;;;;;;;9.36;100.00;93093.88;2098228;28;20032;-84
2023/07/31 04:37:23;;;;;;;5.95;3.47;;;;;;;9.27;100.00;93091.75;2106048;28;20455;-83
2023/07/31 04:38:24;;;;;;;10.38;3.63;;;;;;;9.20;100.00;93096.44;2114200;28;20027;-83
2023/07/31 04:39:25;;;;;;;7.45;3.03;;;;;;;9.17;100.00;93091.91;2098454;28;20164;-83
2023/07/31 04:40:26;;;;;;;7.70;3.60;;;;;;;9.16;100.00;93093.84;2100423;28;20025;-83
2023/07/31 04:41:27;;;;;;;6.43;3.30;;;;;;;9.13;100.00;93097.34;2098085;28;20103;-83
2023/07/31 04:42:28;;;;;;;7.72;3.55;;;;;;;9.04;100.00;93095.19;2096283;28;20024;-84
2023/07/31 04:43:29;;;;;;;7.95;3.40;;;;;;;9.11;100.00;93096.97;2105142;28;20073;-85
2023/07/31 04:44:30;;;;;;;8.98;3.78;;;;;;;9.23;100.00;93093.72;2109392;28;20030;-84
2023/07/31 04:45:31;;;;;;;8.32;3.53;;;;;;;9.27;100.00;93086.41;2109941;28;20031;-83
2023/07/31 04:46:32;;;;;;;7.78;4.22;;;;;;;9.24;100.00;93086.47;2104038;28;20464;-83
2023/07/31 04:47:33;;;;;;;6.65;3.35;;;;;;;9.27;100.00;93088.34;2103968;28;20031;-84
2023/07/31 04:48:34;;;;;;;7.97;3.85;;;;;;;9.32;100.00;93091.28;2104151;28;20058;-84
2023/07/31 04:49:35;;;;;;;8.52;3.55;;;;;;;9.34;100.00;93088.94;2081728;28;20029;-82
2023/07/31 04:50:36;;;;;;;7.43;3.70;;;;;;;9.31;100.00;93086.34;2085842;28;20033;-83
2023/07/31 04:51:38;;;;;;;6.90;3.50;;;;;;;9.28;100.00;93087.16;2098237;28;20028;-83
2023/07/31 04:52:39;;;;;;;5.57;3.30;;;;;;;9.31;100.00;93089.78;2105982;28;20404;-83
2023/07/31 04:53:41;;;;;;;12.40;4.10;;;;;;;9.25;100.00;93082.63;2108473;28;20032;-82
2023/07/31 04:54:49;;;;;;;9.00;3.60;;;;;;;9.20;100.00;93085.78;2114775;28;20067;-82